sensor_id;sensor_type;location;lat;lon;timestamp;pressure;altitude;pressure_sealevel;temperature;humidity
32298;BME280;18782;48.984;8.548;2024-01-30T00:01:17;101292.44;;;1.25;100.00
32298;BME280;18782;48.984;8.548;2024-01-30T00:03:45;101300.03;;;1.25;100.00
32298;BME280;18782;48.984;8.548;2024-01-30T00:06:14;101295.63;;;1.22;100.00
32298;BME280;18782;48.984;8.548;2024-01-30T00:08:42;101294.47;;;1.19;100.00
32298;BME280;18782;48.984;8.548;2024-01-30T00:11:13;101293.34;;;1.15;100.00
32298;BME280;18782;48.984;8.548;2024-01-30T00:13:40;101299.81;;;1.12;100.00
32298;BME280;18782;48.984;8.548;2024-01-30T00:16:08;101305.00;;;1.13;100.00
32298;BME280;18782;48.984;8.548;2024-01-30T00:18:36;101301.44;;;1.11;100.00
32298;BME280;18782;48.984;8.548;2024-01-30T00:21:05;101303.84;;;1.10;100.00
32298;BME280;18782;48.984;8.548;2024-01-30T00:23:34;101299.41;;;1.07;100.00
32298;BME280;18782;48.984;8.548;2024-01-30T00:26:02;101302.06;;;1.09;100.00
32298;BME280;18782;48.984;8.548;2024-01-30T00:28:30;101306.75;;;1.04;100.00
32298;BME280;18782;48.984;8.548;2024-01-30T00:30:58;101317.94;;;1.06;100.00
32298;BME280;18782;48.984;8.548;2024-01-30T00:33:26;101305.47;;;0.99;100.00
32298;BME280;18782;48.984;8.548;2024-01-30T00:35:53;101303.72;;;0.98;100.00
32298;BME280;18782;48.984;8.548;2024-01-30T00:38:21;101302.81;;;0.97;100.00
32298;BME280;18782;48.984;8.548;2024-01-30T00:40:50;101303.72;;;0.98;100.00
32298;BME280;18782;48.984;8.548;2024-01-30T00:43:18;101300.41;;;0.99;100.00
32298;BME280;18782;48.984;8.548;2024-01-30T00:45:47;101298.53;;;0.96;100.00
32298;BME280;18782;48.984;8.548;2024-01-30T00:48:15;101305.13;;;0.94;100.00
32298;BME280;18782;48.984;8.548;2024-01-30T00:50:43;101303.47;;;0.95;100.00
32298;BME280;18782;48.984;8.548;2024-01-30T00:53:10;101309.03;;;0.91;100.00
32298;BME280;18782;48.984;8.548;2024-01-30T00:55:38;101303.97;;;0.91;100.00
32298;BME280;18782;48.984;8.548;2024-01-30T00:58:07;101308.00;;;0.89;100.00
32298;BME280;18782;48.984;8.548;2024-01-30T01:00:35;101300.38;;;0.89;100.00
32298;BME280;18782;48.984;8.548;2024-01-30T01:03:04;101306.22;;;0.88;100.00
32298;BME280;18782;48.984;8.548;2024-01-30T01:05:31;101311.94;;;0.85;100.00
32298;BME280;18782;48.984;8.548;2024-01-30T01:07:59;101309.53;;;0.87;100.00
32298;BME280;18782;48.984;8.548;2024-01-30T01:10:27;101299.63;;;0.80;100.00
32298;BME280;18782;48.984;8.548;2024-01-30T01:12:55;101321.97;;;0.84;100.00
32298;BME280;18782;48.984;8.548;2024-01-30T01:15:25;101313.81;;;0.77;100.00
32298;BME280;18782;48.984;8.548;2024-01-30T01:17:56;101322.19;;;0.76;100.00
32298;BME280;18782;48.984;8.548;2024-01-30T01:20:23;101320.41;;;0.75;100.00
32298;BME280;18782;48.984;8.548;2024-01-30T01:22:51;101321.94;;;0.73;100.00
32298;BME280;18782;48.984;8.548;2024-01-30T01:25:20;101311.81;;;0.73;100.00
32298;BME280;18782;48.984;8.548;2024-01-30T01:27:48;101314.44;;;0.75;100.00
32298;BME280;18782;48.984;8.548;2024-01-30T01:30:18;101315.81;;;0.71;100.00
32298;BME280;18782;48.984;8.548;2024-01-30T01:32:49;101312.69;;;0.74;100.00
32298;BME280;18782;48.984;8.548;2024-01-30T01:35:21;101311.53;;;0.70;100.00
32298;BME280;18782;48.984;8.548;2024-01-30T01:37:50;101302.91;;;0.68;100.00
32298;BME280;18782;48.984;8.548;2024-01-30T01:40:22;101299.34;;;0.66;100.00
32298;BME280;18782;48.984;8.548;2024-01-30T01:42:51;101302.38;;;0.62;100.00
32298;BME280;18782;48.984;8.548;2024-01-30T01:45:19;101303.41;;;0.64;100.00
32298;BME280;18782;48.984;8.548;2024-01-30T01:47:50;101302.38;;;0.62;100.00
32298;BME280;18782;48.984;8.548;2024-01-30T01:50:20;101298.22;;;0.63;100.00
32298;BME280;18782;48.984;8.548;2024-01-30T01:52:50;101303.13;;;0.61;100.00
32298;BME280;18782;48.984;8.548;2024-01-30T01:55:20;101286.16;;;0.60;100.00
32298;BME280;18782;48.984;8.548;2024-01-30T01:57:52;101289.69;;;0.62;100.00
32298;BME280;18782;48.984;8.548;2024-01-30T02:00:20;101288.69;;;0.60;100.00
32298;BME280;18782;48.984;8.548;2024-01-30T02:02:49;101288.41;;;0.57;100.00
32298;BME280;18782;48.984;8.548;2024-01-30T02:05:17;101287.53;;;0.57;100.00
32298;BME280;18782;48.984;8.548;2024-01-30T02:07:45;101284.00;;;0.55;100.00
32298;BME280;18782;48.984;8.548;2024-01-30T02:10:14;101282.22;;;0.54;100.00
32298;BME280;18782;48.984;8.548;2024-01-30T02:12:42;101291.47;;;0.53;100.00
32298;BME280;18782;48.984;8.548;2024-01-30T02:15:13;101294.00;;;0.53;100.00
32298;BME280;18782;48.984;8.548;2024-01-30T02:17:40;101292.06;;;0.50;100.00
32298;BME280;18782;48.984;8.548;2024-01-30T02:20:10;101294.50;;;0.49;100.00
32298;BME280;18782;48.984;8.548;2024-01-30T02:22:41;101289.44;;;0.49;100.00
32298;BME280;18782;48.984;8.548;2024-01-30T02:25:10;101297.78;;;0.48;100.00
32298;BME280;18782;48.984;8.548;2024-01-30T02:27:38;101294.22;;;0.46;100.00
32298;BME280;18782;48.984;8.548;2024-01-30T02:30:06;101292.44;;;0.45;100.00
32298;BME280;18782;48.984;8.548;2024-01-30T02:32:34;101297.50;;;0.45;100.00
32298;BME280;18782;48.984;8.548;2024-01-30T02:35:02;101302.34;;;0.42;100.00
32298;BME280;18782;48.984;8.548;2024-01-30T02:37:30;101292.19;;;0.42;100.00
32298;BME280;18782;48.984;8.548;2024-01-30T02:39:59;101297.25;;;0.42;100.00
32298;BME280;18782;48.984;8.548;2024-01-30T02:42:27;101295.22;;;0.38;100.00
32298;BME280;18782;48.984;8.548;2024-01-30T02:44:55;101302.06;;;0.39;100.00
32298;BME280;18782;48.984;8.548;2024-01-30T02:47:22;101297.59;;;0.36;100.00
32298;BME280;18782;48.984;8.548;2024-01-30T02:49:50;101299.75;;;0.32;100.00
32298;BME280;18782;48.984;8.548;2024-01-30T02:52:21;101295.31;;;0.29;100.00
32298;BME280;18782;48.984;8.548;2024-01-30T02:54:49;101301.00;;;0.27;100.00
32298;BME280;18782;48.984;8.548;2024-01-30T02:57:18;101296.53;;;0.24;100.00
32298;BME280;18782;48.984;8.548;2024-01-30T02:59:46;101294.13;;;0.25;100.00
32298;BME280;18782;48.984;8.548;2024-01-30T03:02:13;101295.78;;;0.25;100.00
32298;BME280;18782;48.984;8.548;2024-01-30T03:04:41;101300.72;;;0.23;100.00
32298;BME280;18782;48.984;8.548;2024-01-30T03:07:09;101298.97;;;0.22;100.00
32298;BME280;18782;48.984;8.548;2024-01-30T03:09:37;101304.03;;;0.22;100.00
32298;BME280;18782;48.984;8.548;2024-01-30T03:12:05;101304.91;;;0.23;100.00
32298;BME280;18782;48.984;8.548;2024-01-30T03:14:38;101299.72;;;0.21;100.00
32298;BME280;18782;48.984;8.548;2024-01-30T03:17:05;101293.00;;;0.22;100.00
32298;BME280;18782;48.984;8.548;2024-01-30T03:19:33;101295.38;;;0.20;100.00
32298;BME280;18782;48.984;8.548;2024-01-30T03:22:01;101297.91;;;0.20;100.00
32298;BME280;18782;48.984;8.548;2024-01-30T03:24:29;101289.44;;;0.20;100.00
32298;BME280;18782;48.984;8.548;2024-01-30T03:26:57;101294.09;;;0.15;100.00
32298;BME280;18782;48.984;8.548;2024-01-30T03:29:24;101299.03;;;0.14;100.00
32298;BME280;18782;48.984;8.548;2024-01-30T03:31:53;101296.63;;;0.15;100.00
32298;BME280;18782;48.984;8.548;2024-01-30T03:34:21;101301.84;;;0.17;100.00
32298;BME280;18782;48.984;8.548;2024-01-30T03:36:49;101298.44;;;0.16;100.00
32298;BME280;18782;48.984;8.548;2024-01-30T03:39:16;101291.56;;;0.15;100.00
32298;BME280;18782;48.984;8.548;2024-01-30T03:41:44;101289.94;;;0.16;100.00
32298;BME280;18782;48.984;8.548;2024-01-30T03:44:12;101298.28;;;0.15;100.00
32298;BME280;18782;48.984;8.548;2024-01-30T03:46:39;101298.44;;;0.16;100.00
32298;BME280;18782;48.984;8.548;2024-01-30T03:49:09;101298.44;;;0.16;100.00
32298;BME280;18782;48.984;8.548;2024-01-30T03:51:37;101298.44;;;0.16;100.00
32298;BME280;18782;48.984;8.548;2024-01-30T03:54:05;101294.09;;;0.15;100.00
32298;BME280;18782;48.984;8.548;2024-01-30T03:56:33;101303.09;;;0.12;100.00
32298;BME280;18782;48.984;8.548;2024-01-30T03:59:01;101294.31;;;0.08;100.00
32298;BME280;18782;48.984;8.548;2024-01-30T04:01:29;101308.50;;;0.06;100.00
32298;BME280;18782;48.984;8.548;2024-01-30T04:03:57;101305.69;;;0.03;100.00
32298;BME280;18782;48.984;8.548;2024-01-30T04:06:26;101310.50;;;0.00;100.00
32298;BME280;18782;48.984;8.548;2024-01-30T04:08:53;101305.69;;;0.03;100.00
32298;BME280;18782;48.984;8.548;2024-01-30T04:11:21;101308.34;;;0.05;100.00
32298;BME280;18782;48.984;8.548;2024-01-30T04:13:49;101312.28;;;0.01;100.00
32298;BME280;18782;48.984;8.548;2024-01-30T04:16:20;101305.16;;;-0.03;100.00
32298;BME280;18782;48.984;8.548;2024-01-30T04:18:48;101305.03;;;-0.05;100.00
32298;BME280;18782;48.984;8.548;2024-01-30T04:21:16;101307.16;;;-0.09;100.00
32298;BME280;18782;48.984;8.548;2024-01-30T04:23:45;101307.63;;;-0.13;100.00
32298;BME280;18782;48.984;8.548;2024-01-30T04:26:13;101294.69;;;-0.16;100.00
32298;BME280;18782;48.984;8.548;2024-01-30T04:28:41;101301.16;;;-0.20;100.00
32298;BME280;18782;48.984;8.548;2024-01-30T04:31:08;101305.31;;;-0.20;100.00
32298;BME280;18782;48.984;8.548;2024-01-30T04:33:36;101298.63;;;-0.20;100.00
32298;BME280;18782;48.984;8.548;2024-01-30T04:36:07;101302.03;;;-0.19;100.00
32298;BME280;18782;48.984;8.548;2024-01-30T04:38:36;101298.47;;;-0.21;100.00
32298;BME280;18782;48.984;8.548;2024-01-30T04:41:05;101293.13;;;-0.24;100.00
32298;BME280;18782;48.984;8.548;2024-01-30T04:43:32;101305.03;;;-0.23;100.00
32298;BME280;18782;48.984;8.548;2024-01-30T04:46:00;101303.50;;;-0.21;100.00
32298;BME280;18782;48.984;8.548;2024-01-30T04:48:28;101302.50;;;-0.23;100.00
32298;BME280;18782;48.984;8.548;2024-01-30T04:50:56;101298.34;;;-0.23;100.00
32298;BME280;18782;48.984;8.548;2024-01-30T04:53:24;101298.34;;;-0.23;100.00
32298;BME280;18782;48.984;8.548;2024-01-30T04:55:51;101302.63;;;-0.22;100.00
32298;BME280;18782;48.984;8.548;2024-01-30T04:58:20;101300.25;;;-0.20;100.00
32298;BME280;18782;48.984;8.548;2024-01-30T05:00:48;101296.69;;;-0.22;100.00
32298;BME280;18782;48.984;8.548;2024-01-30T05:03:19;101303.38;;;-0.23;100.00
32298;BME280;18782;48.984;8.548;2024-01-30T05:05:49;101304.28;;;-0.22;100.00
32298;BME280;18782;48.984;8.548;2024-01-30T05:08:17;101308.56;;;-0.21;100.00
32298;BME280;18782;48.984;8.548;2024-01-30T05:10:44;101308.31;;;-0.24;100.00
32298;BME280;18782;48.984;8.548;2024-01-30T05:13:12;101313.25;;;-0.26;100.00
32298;BME280;18782;48.984;8.548;2024-01-30T05:15:42;101306.56;;;-0.25;100.00
32298;BME280;18782;48.984;8.548;2024-01-30T05:18:09;101313.63;;;-0.21;100.00
32298;BME280;18782;48.984;8.548;2024-01-30T05:20:37;101305.31;;;-0.20;100.00
32298;BME280;18782;48.984;8.548;2024-01-30T05:23:05;101311.41;;;-0.18;100.00
32298;BME280;18782;48.984;8.548;2024-01-30T05:25:32;101312.16;;;-0.19;100.00
32298;BME280;18782;48.984;8.548;2024-01-30T05:28:00;101310.63;;;-0.17;100.00
32298;BME280;18782;48.984;8.548;2024-01-30T05:30:28;101304.69;;;-0.18;100.00
32298;BME280;18782;48.984;8.548;2024-01-30T05:32:57;101318.09;;;-0.19;100.00
32298;BME280;18782;48.984;8.548;2024-01-30T05:35:24;101322.28;;;-0.19;100.00
32298;BME280;18782;48.984;8.548;2024-01-30T05:37:52;101317.69;;;-0.23;100.00
32298;BME280;18782;48.984;8.548;2024-01-30T05:40:20;101320.09;;;-0.25;100.00
32298;BME280;18782;48.984;8.548;2024-01-30T05:42:47;101322.97;;;-0.31;100.00
32298;BME280;18782;48.984;8.548;2024-01-30T05:45:15;101316.72;;;-0.34;100.00
32298;BME280;18782;48.984;8.548;2024-01-30T05:47:43;101313.78;;;-0.39;100.00
32298;BME280;18782;48.984;8.548;2024-01-30T05:50:12;101320.06;;;-0.44;100.00
32298;BME280;18782;48.984;8.548;2024-01-30T05:52:39;101326.16;;;-0.42;100.00
32298;BME280;18782;48.984;8.548;2024-01-30T05:55:07;101328.69;;;-0.42;100.00
32298;BME280;18782;48.984;8.548;2024-01-30T05:57:36;101322.91;;;-0.41;100.00
32298;BME280;18782;48.984;8.548;2024-01-30T06:00:05;101323.63;;;-0.42;100.00
32298;BME280;18782;48.984;8.548;2024-01-30T06:02:33;101329.59;;;-0.41;100.00
32298;BME280;18782;48.984;8.548;2024-01-30T06:05:01;101324.44;;;-0.33;100.00
32298;BME280;18782;48.984;8.548;2024-01-30T06:07:30;101333.94;;;-0.11;100.00
32298;BME280;18782;48.984;8.548;2024-01-30T06:10:03;101332.13;;;-0.04;100.00
32298;BME280;18782;48.984;8.548;2024-01-30T06:12:31;101329.47;;;-0.05;100.00
32298;BME280;18782;48.984;8.548;2024-01-30T06:14:58;101329.59;;;-0.04;100.00
32298;BME280;18782;48.984;8.548;2024-01-30T06:17:26;101335.00;;;-0.09;100.00
32298;BME280;18782;48.984;8.548;2024-01-30T06:19:54;101330.19;;;-0.06;100.00
32298;BME280;18782;48.984;8.548;2024-01-30T06:22:22;101326.66;;;-0.08;100.00
32298;BME280;18782;48.984;8.548;2024-01-30T06:24:51;101324.47;;;-0.14;100.00
32298;BME280;18782;48.984;8.548;2024-01-30T06:27:19;101325.47;;;-0.12;100.00
32298;BME280;18782;48.984;8.548;2024-01-30T06:29:46;101323.16;;;-0.19;100.00
32298;BME280;18782;48.984;8.548;2024-01-30T06:32:14;101328.09;;;-0.20;100.00
32298;BME280;18782;48.984;8.548;2024-01-30T06:34:42;101321.81;;;-0.15;100.00
32298;BME280;18782;48.984;8.548;2024-01-30T06:37:11;101332.47;;;-0.09;100.00
32298;BME280;18782;48.984;8.548;2024-01-30T06:39:38;101326.56;;;0.01;100.00
32298;BME280;18782;48.984;8.548;2024-01-30T06:42:07;101329.22;;;0.02;100.00
32298;BME280;18782;48.984;8.548;2024-01-30T06:44:35;101328.00;;;0.07;100.00
32298;BME280;18782;48.984;8.548;2024-01-30T06:47:03;101333.31;;;0.10;100.00
32298;BME280;18782;48.984;8.548;2024-01-30T06:49:31;101329.28;;;0.12;100.00
32298;BME280;18782;48.984;8.548;2024-01-30T06:51:59;101322.88;;;0.16;100.00
32298;BME280;18782;48.984;8.548;2024-01-30T06:54:27;101324.47;;;0.15;100.00
32298;BME280;18782;48.984;8.548;2024-01-30T06:56:54;101334.75;;;0.17;100.00
32298;BME280;18782;48.984;8.548;2024-01-30T06:59:23;101337.13;;;0.15;100.00
32298;BME280;18782;48.984;8.548;2024-01-30T07:01:51;101334.59;;;0.15;100.00
32298;BME280;18782;48.984;8.548;2024-01-30T07:04:19;101331.06;;;0.13;100.00
32298;BME280;18782;48.984;8.548;2024-01-30T07:06:47;101338.25;;;0.09;100.00
32298;BME280;18782;48.984;8.548;2024-01-30T07:09:14;101332.19;;;0.07;100.00
32298;BME280;18782;48.984;8.548;2024-01-30T07:11:42;101331.63;;;0.01;100.00
32298;BME280;18782;48.984;8.548;2024-01-30T07:14:10;101336.53;;;-0.01;100.00
32298;BME280;18782;48.984;8.548;2024-01-30T07:16:39;101339.34;;;0.02;100.00
32298;BME280;18782;48.984;8.548;2024-01-30T07:19:06;101334.91;;;-0.01;100.00
32298;BME280;18782;48.984;8.548;2024-01-30T07:21:35;101342.66;;;0.01;100.00
32298;BME280;18782;48.984;8.548;2024-01-30T07:24:03;101337.59;;;0.01;100.00
32298;BME280;18782;48.984;8.548;2024-01-30T07:26:31;101334.00;;;-0.01;100.00
32298;BME280;18782;48.984;8.548;2024-01-30T07:28:58;101341.59;;;-0.01;100.00
32298;BME280;18782;48.984;8.548;2024-01-30T07:31:26;101345.03;;;-0.01;100.00
32298;BME280;18782;48.984;8.548;2024-01-30T07:34:00;101341.13;;;0.03;100.00
32298;BME280;18782;48.984;8.548;2024-01-30T07:36:29;101344.41;;;0.02;100.00
32298;BME280;18782;48.984;8.548;2024-01-30T07:38:56;101353.78;;;0.03;100.00
32298;BME280;18782;48.984;8.548;2024-01-30T07:41:24;101352.44;;;0.07;100.00
32298;BME280;18782;48.984;8.548;2024-01-30T07:43:52;101351.03;;;0.10;100.00
32298;BME280;18782;48.984;8.548;2024-01-30T07:46:20;101351.09;;;0.20;100.00
32298;BME280;18782;48.984;8.548;2024-01-30T07:48:47;101340.59;;;0.26;100.00
32298;BME280;18782;48.984;8.548;2024-01-30T07:51:21;101347.31;;;0.25;100.00
32298;BME280;18782;48.984;8.548;2024-01-30T07:53:49;101349.13;;;0.27;100.00
32298;BME280;18782;48.984;8.548;2024-01-30T07:56:16;101350.41;;;0.32;100.00
32298;BME280;18782;48.984;8.548;2024-01-30T07:58:44;101348.25;;;0.36;100.00
32298;BME280;18782;48.984;8.548;2024-01-30T08:01:12;101357.00;;;0.40;100.00
32298;BME280;18782;48.984;8.548;2024-01-30T08:03:39;101358.06;;;0.42;100.00
32298;BME280;18782;48.984;8.548;2024-01-30T08:06:08;101361.59;;;0.44;100.00
32298;BME280;18782;48.984;8.548;2024-01-30T08:08:38;101365.06;;;0.55;100.00
32298;BME280;18782;48.984;8.548;2024-01-30T08:11:06;101356.34;;;0.61;100.00
32298;BME280;18782;48.984;8.548;2024-01-30T08:13:34;101359.28;;;1.56;100.00
32298;BME280;18782;48.984;8.548;2024-01-30T08:16:01;101355.31;;;2.97;100.00
32298;BME280;18782;48.984;8.548;2024-01-30T08:18:29;101366.19;;;3.73;100.00
32298;BME280;18782;48.984;8.548;2024-01-30T08:20:57;101366.03;;;4.40;100.00
32298;BME280;18782;48.984;8.548;2024-01-30T08:23:25;101360.47;;;4.46;100.00
32298;BME280;18782;48.984;8.548;2024-01-30T08:25:54;101371.56;;;4.00;100.00
32298;BME280;18782;48.984;8.548;2024-01-30T08:28:21;101369.72;;;3.63;100.00
32298;BME280;18782;48.984;8.548;2024-01-30T08:30:49;101374.94;;;3.31;100.00
32298;BME280;18782;48.984;8.548;2024-01-30T08:33:17;101372.00;;;3.15;100.00
32298;BME280;18782;48.984;8.548;2024-01-30T08:35:44;101378.19;;;2.97;100.00
32298;BME280;18782;48.984;8.548;2024-01-30T08:38:12;101374.59;;;2.83;100.00
32298;BME280;18782;48.984;8.548;2024-01-30T08:40:40;101376.06;;;2.69;100.00
32298;BME280;18782;48.984;8.548;2024-01-30T08:43:09;101382.22;;;2.61;100.00
32298;BME280;18782;48.984;8.548;2024-01-30T08:45:37;101390.06;;;2.64;100.00
32298;BME280;18782;48.984;8.548;2024-01-30T08:48:05;101380.88;;;2.66;100.00
32298;BME280;18782;48.984;8.548;2024-01-30T08:50:34;101380.84;;;2.76;100.00
32298;BME280;18782;48.984;8.548;2024-01-30T08:53:02;101380.38;;;2.70;100.00
32298;BME280;18782;48.984;8.548;2024-01-30T08:55:30;101376.75;;;2.56;100.00
32298;BME280;18782;48.984;8.548;2024-01-30T08:57:57;101384.53;;;2.48;100.00
32298;BME280;18782;48.984;8.548;2024-01-30T09:00:27;101389.09;;;2.52;100.00
32298;BME280;18782;48.984;8.548;2024-01-30T09:02:55;101382.47;;;2.54;100.00
32298;BME280;18782;48.984;8.548;2024-01-30T09:05:23;101390.16;;;2.66;100.00
32298;BME280;18782;48.984;8.548;2024-01-30T09:07:51;101385.66;;;2.83;100.00
32298;BME280;18782;48.984;8.548;2024-01-30T09:10:19;101383.00;;;3.04;100.00
32298;BME280;18782;48.984;8.548;2024-01-30T09:12:47;101386.03;;;3.10;100.00
32298;BME280;18782;48.984;8.548;2024-01-30T09:15:15;101375.06;;;3.11;100.00
32298;BME280;18782;48.984;8.548;2024-01-30T09:17:45;101377.72;;;3.12;100.00
32298;BME280;18782;48.984;8.548;2024-01-30T09:20:12;101375.31;;;3.14;100.00
32298;BME280;18782;48.984;8.548;2024-01-30T09:22:40;101383.31;;;3.19;100.00
32298;BME280;18782;48.984;8.548;2024-01-30T09:25:08;101379.56;;;3.25;100.00
32298;BME280;18782;48.984;8.548;2024-01-30T09:27:36;101388.66;;;3.33;100.00
32298;BME280;18782;48.984;8.548;2024-01-30T09:30:05;101401.72;;;3.38;100.00
32298;BME280;18782;48.984;8.548;2024-01-30T09:32:33;101396.47;;;3.47;100.00
32298;BME280;18782;48.984;8.548;2024-01-30T09:35:03;101408.66;;;3.51;100.00
32298;BME280;18782;48.984;8.548;2024-01-30T09:37:31;101403.16;;;3.56;100.00
32298;BME280;18782;48.984;8.548;2024-01-30T09:39:59;101390.34;;;3.66;100.00
32298;BME280;18782;48.984;8.548;2024-01-30T09:42:34;101403.41;;;3.71;100.00
32298;BME280;18782;48.984;8.548;2024-01-30T09:45:03;101402.56;;;3.82;100.00
32298;BME280;18782;48.984;8.548;2024-01-30T09:47:32;101407.31;;;3.89;100.00
32298;BME280;18782;48.984;8.548;2024-01-30T09:50:00;101401.00;;;3.96;100.00
32298;BME280;18782;48.984;8.548;2024-01-30T09:52:31;101393.94;;;4.04;100.00
32298;BME280;18782;48.984;8.548;2024-01-30T09:55:00;101389.84;;;4.06;100.00
32298;BME280;18782;48.984;8.548;2024-01-30T09:57:27;101397.81;;;4.10;100.00
32298;BME280;18782;48.984;8.548;2024-01-30T09:59:55;101390.94;;;4.21;100.00
32298;BME280;18782;48.984;8.548;2024-01-30T10:02:23;101392.97;;;4.25;100.00
32298;BME280;18782;48.984;8.548;2024-01-30T10:04:52;101393.72;;;4.36;100.00
32298;BME280;18782;48.984;8.548;2024-01-30T10:07:20;101395.84;;;4.41;100.00
32298;BME280;18782;48.984;8.548;2024-01-30T10:09:50;101384.97;;;4.56;100.00
32298;BME280;18782;48.984;8.548;2024-01-30T10:12:18;101390.72;;;4.65;100.00
32298;BME280;18782;48.984;8.548;2024-01-30T10:14:46;101399.78;;;4.73;100.00
32298;BME280;18782;48.984;8.548;2024-01-30T10:17:16;101386.56;;;4.90;100.00
32298;BME280;18782;48.984;8.548;2024-01-30T10:19:58;101392.09;;;4.96;100.00
32298;BME280;18782;48.984;8.548;2024-01-30T10:22:26;101392.94;;;5.09;99.57
32298;BME280;18782;48.984;8.548;2024-01-30T10:24:55;101395.34;;;5.19;99.45
32298;BME280;18782;48.984;8.548;2024-01-30T10:27:25;101394.19;;;5.39;97.96
32298;BME280;18782;48.984;8.548;2024-01-30T10:29:52;101397.88;;;5.56;98.80
32298;BME280;18782;48.984;8.548;2024-01-30T10:32:20;101402.25;;;5.70;97.80
32298;BME280;18782;48.984;8.548;2024-01-30T10:34:48;101394.38;;;5.92;95.13
32298;BME280;18782;48.984;8.548;2024-01-30T10:37:16;101404.91;;;6.10;94.64
32298;BME280;18782;48.984;8.548;2024-01-30T10:39:45;101401.28;;;6.19;94.91
32298;BME280;18782;48.984;8.548;2024-01-30T10:42:17;101397.44;;;6.26;94.66
32298;BME280;18782;48.984;8.548;2024-01-30T10:44:53;101394.50;;;6.33;94.81
32298;BME280;18782;48.984;8.548;2024-01-30T10:47:26;101395.28;;;6.45;93.62
32298;BME280;18782;48.984;8.548;2024-01-30T10:49:56;101396.38;;;6.49;93.71
32298;BME280;18782;48.984;8.548;2024-01-30T10:52:24;101402.97;;;6.59;93.97
32298;BME280;18782;48.984;8.548;2024-01-30T10:54:55;101401.59;;;6.64;93.67
32298;BME280;18782;48.984;8.548;2024-01-30T10:57:24;101400.09;;;6.80;91.64
32298;BME280;18782;48.984;8.548;2024-01-30T10:59:55;101392.69;;;6.85;92.12
32298;BME280;18782;48.984;8.548;2024-01-30T11:02:25;101395.97;;;7.11;100.00
32298;BME280;18782;48.984;8.548;2024-01-30T11:04:56;101392.94;;;7.03;91.61
32298;BME280;18782;48.984;8.548;2024-01-30T11:07:25;101388.53;;;7.00;91.04
32298;BME280;18782;48.984;8.548;2024-01-30T11:09:59;101395.97;;;7.11;90.29
32298;BME280;18782;48.984;8.548;2024-01-30T11:12:31;101390.56;;;7.34;90.40
32298;BME280;18782;48.984;8.548;2024-01-30T11:15:05;101386.13;;;7.59;88.89
32298;BME280;18782;48.984;8.548;2024-01-30T11:17:43;101397.34;;;7.76;87.70
32298;BME280;18782;48.984;8.548;2024-01-30T11:20:12;101392.69;;;7.84;87.09
32298;BME280;18782;48.984;8.548;2024-01-30T11:22:42;101389.22;;;7.98;86.80
32298;BME280;18782;48.984;8.548;2024-01-30T11:25:12;101382.41;;;8.14;87.33
32298;BME280;18782;48.984;8.548;2024-01-30T11:27:42;101380.81;;;8.45;86.74
32298;BME280;18782;48.984;8.548;2024-01-30T11:30:11;101369.59;;;8.74;85.29
32298;BME280;18782;48.984;8.548;2024-01-30T11:32:58;101368.75;;;9.23;83.43
32298;BME280;18782;48.984;8.548;2024-01-30T11:35:30;101369.84;;;9.77;80.80
32298;BME280;18782;48.984;8.548;2024-01-30T11:37:59;101359.47;;;10.27;75.35
32298;BME280;18782;48.984;8.548;2024-01-30T11:40:27;101361.16;;;10.62;75.23
32298;BME280;18782;48.984;8.548;2024-01-30T11:42:58;101363.94;;;11.04;73.18
32298;BME280;18782;48.984;8.548;2024-01-30T11:45:27;101362.50;;;10.91;71.30
32298;BME280;18782;48.984;8.548;2024-01-30T11:47:55;101365.28;;;11.15;72.58
32298;BME280;18782;48.984;8.548;2024-01-30T11:50:24;101360.00;;;11.32;71.73
32298;BME280;18782;48.984;8.548;2024-01-30T11:52:53;101355.75;;;11.53;70.03
32298;BME280;18782;48.984;8.548;2024-01-30T11:55:23;101359.41;;;11.77;69.93
32298;BME280;18782;48.984;8.548;2024-01-30T11:57:55;101355.97;;;11.98;70.04
32298;BME280;18782;48.984;8.548;2024-01-30T12:00:24;101353.66;;;12.04;67.89
32298;BME280;18782;48.984;8.548;2024-01-30T12:02:53;101352.72;;;12.02;69.43
32298;BME280;18782;48.984;8.548;2024-01-30T12:05:24;101357.19;;;12.06;68.88
32298;BME280;18782;48.984;8.548;2024-01-30T12:07:53;101339.72;;;12.21;66.38
32298;BME280;18782;48.984;8.548;2024-01-30T12:10:21;101340.31;;;12.37;65.51
32298;BME280;18782;48.984;8.548;2024-01-30T12:12:50;101341.63;;;12.70;61.60
32298;BME280;18782;48.984;8.548;2024-01-30T12:15:18;101344.97;;;13.14;60.10
32298;BME280;18782;48.984;8.548;2024-01-30T12:17:50;101333.59;;;13.31;58.91
32298;BME280;18782;48.984;8.548;2024-01-30T12:20:18;101330.50;;;13.42;58.10
32298;BME280;18782;48.984;8.548;2024-01-30T12:22:49;101328.09;;;13.22;57.81
32298;BME280;18782;48.984;8.548;2024-01-30T12:25:18;101324.34;;;13.38;59.73
32298;BME280;18782;48.984;8.548;2024-01-30T12:27:47;101314.06;;;12.93;59.90
32298;BME280;18782;48.984;8.548;2024-01-30T12:30:17;101315.50;;;12.85;60.64
32298;BME280;18782;48.984;8.548;2024-01-30T12:32:47;101305.25;;;12.88;61.66
32298;BME280;18782;48.984;8.548;2024-01-30T12:35:19;101310.22;;;13.06;61.74
32298;BME280;18782;48.984;8.548;2024-01-30T12:37:49;101298.53;;;13.65;59.65
32298;BME280;18782;48.984;8.548;2024-01-30T12:40:17;101295.13;;;14.20;57.88
32298;BME280;18782;48.984;8.548;2024-01-30T12:42:46;101294.59;;;14.59;56.70
32298;BME280;18782;48.984;8.548;2024-01-30T12:45:17;101297.84;;;14.82;56.63
32298;BME280;18782;48.984;8.548;2024-01-30T12:47:46;101293.97;;;14.98;55.72
32298;BME280;18782;48.984;8.548;2024-01-30T12:50:14;101304.28;;;14.95;53.70
32298;BME280;18782;48.984;8.548;2024-01-30T12:52:45;101306.41;;;14.78;55.33
32298;BME280;18782;48.984;8.548;2024-01-30T12:55:16;101305.16;;;14.65;56.14